createdAt,value
2023-04-04T00:00:51.478Z,97793.05
2023-04-04T00:03:20.297Z,97797.55
2023-04-04T00:05:48.536Z,97796.22
2023-04-04T00:08:16.295Z,97794.67
2023-04-04T00:10:43.655Z,97792.38
2023-04-04T00:13:12.261Z,97790.03
2023-04-04T00:15:39.890Z,97793.53
2023-04-04T00:18:07.493Z,97794.12
2023-04-04T00:20:35.633Z,97799.02
2023-04-04T00:23:03.198Z,97794.40
2023-04-04T00:25:31.364Z,97787.27
2023-04-04T00:28:00.378Z,97791.65
2023-04-04T00:30:28.477Z,97800.64
2023-04-04T00:32:56.860Z,97805.48
2023-04-04T00:35:24.626Z,97808.09
2023-04-04T00:37:52.233Z,97803.42
2023-04-04T00:40:19.691Z,97810.52
2023-04-04T00:42:47.346Z,97817.66
2023-04-04T00:45:15.118Z,97824.98
2023-04-04T00:47:43.083Z,97828.41
2023-04-04T00:50:11.049Z,97824.22
2023-04-04T00:52:38.838Z,97825.32
2023-04-04T00:55:07.707Z,97831.05
2023-04-04T00:57:35.374Z,97841.10
2023-04-04T01:00:07.231Z,97845.36
2023-04-04T01:02:35.402Z,97848.69
2023-04-04T01:05:04.087Z,97845.40
2023-04-04T01:07:39.214Z,97850.60
2023-04-04T01:10:08.317Z,97851.98
2023-04-04T01:12:36.283Z,97854.19
2023-04-04T01:15:04.248Z,97856.16
2023-04-04T01:17:32.554Z,97856.12
2023-04-04T01:20:17.181Z,97855.34
2023-04-04T01:22:48.881Z,97851.45
2023-04-04T01:25:18.445Z,97852.73
2023-04-04T01:27:51.017Z,97852.27
2023-04-04T01:30:19.709Z,97858.15
2023-04-04T01:32:55.775Z,97866.58
2023-04-04T01:35:39.138Z,97872.36
2023-04-04T01:38:22.761Z,97867.27
2023-04-04T01:40:52.058Z,97863.17
2023-04-04T01:43:21.333Z,97870.91
2023-04-04T01:45:50.485Z,97870.34
2023-04-04T01:48:18.289Z,97872.68
2023-04-04T01:50:48.962Z,97870.80
2023-04-04T01:53:17.010Z,97874.86
2023-04-04T01:55:45.422Z,97880.66
2023-04-04T01:58:14.188Z,97882.40
2023-04-04T02:00:41.926Z,97889.98
2023-04-04T02:03:09.583Z,97899.37
2023-04-04T02:05:37.136Z,97909.64
2023-04-04T02:08:06.135Z,97909.07
2023-04-04T02:10:39.250Z,97910.78
2023-04-04T02:13:11.715Z,97912.41
2023-04-04T02:15:59.203Z,97921.44
2023-04-04T02:18:26.646Z,97931.94
2023-04-04T02:20:57.207Z,97945.36
2023-04-04T02:23:24.890Z,97947.23
2023-04-04T02:25:52.528Z,97950.69
2023-04-04T02:28:22.879Z,97951.86
2023-04-04T02:30:50.410Z,97950.41
2023-04-04T02:33:20.430Z,97952.89
2023-04-04T02:35:48.559Z,97959.30
2023-04-04T02:38:17.507Z,97961.30
2023-04-04T02:40:46.108Z,97956.92
2023-04-04T02:43:14.314Z,97955.08
2023-04-04T02:45:42.434Z,97957.44
2023-04-04T02:48:21.993Z,97956.58
2023-04-04T02:50:51.778Z,97957.38
2023-04-04T02:53:19.130Z,97959.21
2023-04-04T02:55:48.429Z,97958.52
2023-04-04T02:58:17.953Z,97958.53
2023-04-04T03:00:47.067Z,97960.69
2023-04-04T03:03:15.166Z,97958.16
2023-04-04T03:05:45.325Z,97952.34
2023-04-04T03:08:13.802Z,97952.90
2023-04-04T03:10:42.461Z,97956.59
2023-04-04T03:13:10.359Z,97955.10
2023-04-04T03:15:43.443Z,97956.75
2023-04-04T03:18:15.439Z,97966.17
2023-04-04T03:20:43.277Z,97972.25
2023-04-04T03:23:11.156Z,97974.58
2023-04-04T03:25:38.899Z,97974.02
2023-04-04T03:28:09.760Z,97973.72
2023-04-04T03:30:37.298Z,97971.88
2023-04-04T03:33:09.407Z,97968.96
2023-04-04T03:35:39.327Z,97971.75
2023-04-04T03:38:10.314Z,97971.58
2023-04-04T03:40:38.970Z,97976.61
2023-04-04T03:43:11.883Z,97982.66
2023-04-04T03:45:39.579Z,97986.17
2023-04-04T03:48:09.560Z,97987.95
2023-04-04T03:50:38.602Z,98000.82
2023-04-04T03:53:06.832Z,98006.71
2023-04-04T03:55:34.493Z,98019.11
2023-04-04T03:58:01.948Z,98032.13
2023-04-04T04:00:30.323Z,98042.11
2023-04-04T04:02:59.060Z,98047.26
2023-04-04T04:05:26.879Z,98047.98
2023-04-04T04:07:54.278Z,98051.02
2023-04-04T04:10:23.526Z,98057.43
2023-04-04T04:12:52.417Z,98058.45
2023-04-04T04:15:19.729Z,98064.71
2023-04-04T04:17:48.689Z,98073.17
2023-04-04T04:20:16.980Z,98079.09
2023-04-04T04:22:48.284Z,98088.52
2023-04-04T04:25:16.869Z,98093.91
2023-04-04T04:27:49.137Z,98100.77
2023-04-04T04:30:17.422Z,98102.68
2023-04-04T04:32:56.872Z,98105.84
2023-04-04T04:35:27.902Z,98114.20
2023-04-04T04:37:56.581Z,98122.08
2023-04-04T04:40:23.977Z,98132.20
2023-04-04T04:43:09.726Z,98139.15
2023-04-04T04:45:38.000Z,98148.98
2023-04-04T04:48:07.761Z,98159.79
2023-04-04T04:50:44.206Z,98164.86
2023-04-04T04:53:13.614Z,98170.46
2023-04-04T04:55:46.209Z,98176.23
2023-04-04T04:58:16.511Z,98179.30
2023-04-04T05:00:46.633Z,98182.14
2023-04-04T05:03:21.237Z,98184.55
2023-04-04T05:05:50.934Z,98188.62
2023-04-04T05:08:18.605Z,98192.73
2023-04-04T05:10:59.060Z,98196.31
2023-04-04T05:13:29.991Z,98205.53
2023-04-04T05:15:58.069Z,98215.41
2023-04-04T05:18:30.227Z,98220.93
2023-04-04T05:20:58.101Z,98222.95
2023-04-04T05:23:28.017Z,98228.23
2023-04-04T05:25:55.673Z,98234.73
2023-04-04T05:28:23.307Z,98241.36
2023-04-04T05:30:53.074Z,98244.92
2023-04-04T05:33:31.265Z,98245.07
2023-04-04T05:36:15.873Z,98251.45
2023-04-04T05:38:51.690Z,98260.73
2023-04-04T05:41:20.033Z,98267.29
2023-04-04T05:43:47.697Z,98272.73
2023-04-04T05:46:16.420Z,98281.05
2023-04-04T05:48:49.830Z,98286.59
2023-04-04T05:51:21.437Z,98283.69
2023-04-04T05:53:54.933Z,98281.38
2023-04-04T05:56:26.323Z,98282.47
2023-04-04T05:58:56.796Z,98287.82
2023-04-04T06:01:25.317Z,98287.20
2023-04-04T06:03:56.023Z,98291.46
2023-04-04T06:06:28.199Z,98303.54
2023-04-04T06:08:55.795Z,98311.91
2023-04-04T06:11:23.413Z,98324.80
2023-04-04T06:13:54.722Z,98334.20
2023-04-04T06:16:22.610Z,98343.95
2023-04-04T06:18:50.699Z,98348.92
2023-04-04T06:21:19.075Z,98355.35
2023-04-04T06:23:46.842Z,98367.13
2023-04-04T06:26:14.460Z,98379.02
2023-04-04T06:28:49.801Z,98388.52
2023-04-04T06:31:25.065Z,98394.13
2023-04-04T06:33:54.189Z,98403.72
2023-04-04T06:36:24.401Z,98418.52
2023-04-04T06:38:56.413Z,98422.02
2023-04-04T06:41:24.359Z,98422.39
2023-04-04T06:43:53.420Z,98432.55
2023-04-04T06:46:22.169Z,98434.59
2023-04-04T06:48:49.764Z,98440.94
2023-04-04T06:51:21.639Z,98444.94
2023-04-04T06:53:51.333Z,98443.79
2023-04-04T06:56:18.998Z,98440.50
2023-04-04T06:58:46.924Z,98435.95
2023-04-04T07:01:14.366Z,98431.48
2023-04-04T07:03:44.171Z,98418.89
2023-04-04T07:06:11.696Z,98408.45
2023-04-04T07:08:40.314Z,98407.71
2023-04-04T07:11:08.185Z,98405.19
2023-04-04T07:13:36.027Z,98399.03
2023-04-04T07:16:03.710Z,98397.18
2023-04-04T07:18:32.356Z,98392.06
2023-04-04T07:21:00.425Z,98389.63
2023-04-04T07:23:27.880Z,98388.45
2023-04-04T07:25:55.644Z,98390.06
2023-04-04T07:28:24.844Z,98388.96
2023-04-04T07:30:59.071Z,98399.57
2023-04-04T07:33:28.050Z,98414.92
2023-04-04T07:35:55.865Z,98430.02
2023-04-04T07:38:24.177Z,98444.40
2023-04-04T07:40:51.762Z,98457.08
2023-04-04T07:43:19.208Z,98473.72
2023-04-04T07:45:47.488Z,98493.75
2023-04-04T07:48:15.145Z,98503.33
2023-04-04T07:50:42.803Z,98514.01
2023-04-04T07:53:10.475Z,98525.36
2023-04-04T07:55:37.714Z,98545.77
2023-04-04T07:58:06.292Z,98560.43
2023-04-04T08:00:33.858Z,98573.77
2023-04-04T08:03:23.829Z,98600.90
2023-04-04T08:05:51.515Z,98610.70
2023-04-04T08:08:18.856Z,98624.27
2023-04-04T08:10:47.241Z,98638.40
2023-04-04T08:13:18.066Z,98656.05
2023-04-04T08:15:45.897Z,98681.30
2023-04-04T08:18:13.597Z,98702.46
2023-04-04T08:20:42.892Z,98715.48
2023-04-04T08:23:12.612Z,98724.16
2023-04-04T08:25:44.668Z,98725.22
2023-04-04T08:28:12.185Z,98721.30
2023-04-04T08:30:42.143Z,98736.46
2023-04-04T08:33:12.522Z,98758.27
2023-04-04T08:35:40.512Z,98772.86
2023-04-04T08:38:08.613Z,98777.91
2023-04-04T08:40:38.282Z,98787.27
2023-04-04T08:43:08.749Z,98793.02
2023-04-04T08:45:37.734Z,98799.23
2023-04-04T08:48:05.268Z,98809.12
2023-04-04T08:50:33.264Z,98820.27
2023-04-04T08:53:04.296Z,98828.56
2023-04-04T08:55:32.787Z,98842.83
2023-04-04T08:58:00.210Z,98853.39
2023-04-04T09:00:28.040Z,98876.32
2023-04-04T09:02:59.928Z,98889.05
2023-04-04T09:05:27.943Z,98894.07
2023-04-04T09:07:56.220Z,98903.57
2023-04-04T09:10:23.990Z,98913.98
2023-04-04T09:12:52.568Z,98927.50
2023-04-04T09:15:22.283Z,98938.70
2023-04-04T09:17:49.832Z,98946.32
2023-04-04T09:20:43.541Z,98965.42
2023-04-04T09:23:15.514Z,98975.02
2023-04-04T09:28:23.545Z,98996.05
2023-04-04T09:30:51.693Z,99006.63
2023-04-04T09:33:26.399Z,99008.80
2023-04-04T09:36:07.173Z,99012.77
2023-04-04T09:38:36.378Z,99020.55
2023-04-04T09:41:07.409Z,99027.60
2023-04-04T09:43:35.872Z,99025.73
2023-04-04T09:46:03.884Z,99025.23
2023-04-04T09:48:32.995Z,99032.38
2023-04-04T09:51:01.007Z,99033.85
2023-04-04T09:53:28.575Z,99043.47
2023-04-04T09:55:56.652Z,99038.53
2023-04-04T09:58:28.889Z,99037.35
2023-04-04T10:00:59.798Z,99036.81
2023-04-04T10:03:28.323Z,99034.75
2023-04-04T10:06:07.374Z,99032.98
2023-04-04T10:08:41.230Z,99042.77
2023-04-04T10:11:11.566Z,99048.02
2023-04-04T10:13:46.266Z,99044.73
2023-04-04T10:16:14.944Z,99047.07
2023-04-04T10:18:43.001Z,99046.51
2023-04-04T10:21:16.463Z,99048.04
2023-04-04T10:23:46.697Z,99058.20
2023-04-04T10:26:14.539Z,99074.34
2023-04-04T10:28:44.338Z,99081.42
2023-04-04T10:31:25.285Z,99085.52
2023-04-04T10:34:22.487Z,99102.48
2023-04-04T10:36:53.137Z,99116.31
2023-04-04T10:39:26.202Z,99119.92
2023-04-04T10:41:53.565Z,99131.47
2023-04-04T10:44:33.307Z,99144.33
2023-04-04T10:47:23.188Z,99146.27
2023-04-04T10:49:51.602Z,99141.07
2023-04-04T10:52:20.662Z,99130.86
2023-04-04T10:54:52.250Z,99137.39
2023-04-04T10:57:20.191Z,99142.16
2023-04-04T10:59:58.527Z,99146.72
2023-04-04T11:02:52.190Z,99151.86
2023-04-04T11:05:33.962Z,99158.80
2023-04-04T11:08:08.179Z,99167.31
2023-04-04T11:10:37.802Z,99172.39
2023-04-04T11:13:34.933Z,99175.63
2023-04-04T11:16:07.203Z,99174.63
2023-04-04T11:18:41.218Z,99174.46
2023-04-04T11:21:10.924Z,99173.87
2023-04-04T11:23:59.406Z,99171.67
2023-04-04T11:26:27.992Z,99165.66
2023-04-04T11:29:00.024Z,99163.08
2023-04-04T11:31:39.685Z,99159.52
2023-04-04T11:34:08.446Z,99155.86
2023-04-04T11:36:40.051Z,99161.88
2023-04-04T11:39:30.518Z,99164.09
2023-04-04T11:42:07.201Z,99165.60
2023-04-04T11:44:42.818Z,99165.14
2023-04-04T11:47:11.206Z,99162.57
2023-04-04T11:49:41.141Z,99167.38
2023-04-04T11:52:10.516Z,99167.96
2023-04-04T11:54:39.811Z,99164.86
2023-04-04T11:57:09.688Z,99170.61
2023-04-04T11:59:45.034Z,99170.62
2023-04-04T12:02:14.503Z,99176.42
2023-04-04T12:04:45.042Z,99168.04
2023-04-04T12:07:22.696Z,99168.83
2023-04-04T12:09:50.465Z,99165.21
2023-04-04T12:12:18.136Z,99163.17
2023-04-04T12:14:46.533Z,99162.46
2023-04-04T12:17:15.609Z,99164.53
2023-04-04T12:19:43.153Z,99165.85
2023-04-04T12:22:11.426Z,99167.34
2023-04-04T12:24:38.881Z,99168.52
2023-04-04T12:27:06.387Z,99166.34
2023-04-04T12:29:35.890Z,99170.73
2023-04-04T12:32:04.349Z,99166.78
2023-04-04T12:34:32.709Z,99166.34
2023-04-04T12:37:01.125Z,99161.40
2023-04-04T12:39:29.163Z,99160.95
2023-04-04T12:42:00.911Z,99157.81
2023-04-04T12:44:33.144Z,99157.80
2023-04-04T12:47:07.885Z,99150.31
2023-04-04T12:49:40.770Z,99150.94
2023-04-04T12:52:31.624Z,99148.06
2023-04-04T12:55:08.121Z,99144.56
2023-04-04T12:57:39.373Z,99139.44
2023-04-04T13:00:09.212Z,99135.09
2023-04-04T13:02:38.239Z,99140.31
2023-04-04T13:05:07.048Z,99136.25
2023-04-04T13:07:42.517Z,99131.83
2023-04-04T13:10:11.442Z,99124.86
2023-04-04T13:12:56.303Z,99125.50
2023-04-04T13:15:50.070Z,99125.65
2023-04-04T13:18:22.274Z,99125.34
2023-04-04T13:20:51.163Z,99126.29
2023-04-04T13:23:20.032Z,99122.56
2023-04-04T13:25:47.177Z,99126.65
2023-04-04T13:28:15.376Z,99121.94
2023-04-04T13:30:48.559Z,99120.10
2023-04-04T13:33:17.027Z,99122.27
2023-04-04T13:35:45.610Z,99127.41
2023-04-04T13:38:14.883Z,99129.63
2023-04-04T13:40:42.397Z,99133.64
2023-04-04T13:43:14.776Z,99133.39
2023-04-04T13:45:46.011Z,99134.42
2023-04-04T13:48:13.741Z,99129.60
2023-04-04T13:50:43.819Z,99137.00
2023-04-04T13:53:11.770Z,99138.01
2023-04-04T13:56:01.570Z,99142.36
2023-04-04T13:58:31.219Z,99147.02
2023-04-04T14:00:58.773Z,99146.62
2023-04-04T14:03:27.577Z,99148.65
2023-04-04T14:05:55.628Z,99149.98
2023-04-04T14:08:23.400Z,99152.42
2023-04-04T14:10:51.157Z,99149.52
2023-04-04T14:13:19.433Z,99147.72
2023-04-04T14:15:47.034Z,99142.23
2023-04-04T14:18:15.202Z,99138.58
2023-04-04T14:20:42.727Z,99131.79
2023-04-04T14:23:11.006Z,99131.74
2023-04-04T14:25:38.432Z,99129.23
2023-04-04T14:28:08.719Z,99134.13
2023-04-04T14:30:36.136Z,99124.67
2023-04-04T14:33:07.675Z,99120.75
2023-04-04T14:35:36.067Z,99114.28
2023-04-04T14:38:03.418Z,99109.73
2023-04-04T14:40:33.040Z,99107.45
2023-04-04T14:43:00.696Z,99097.23
2023-04-04T14:45:34.528Z,99094.17
2023-04-04T14:48:02.040Z,99090.32
2023-04-04T14:50:30.547Z,99088.66
2023-04-04T14:52:58.095Z,99087.02
2023-04-04T14:55:25.863Z,99094.95
2023-04-04T14:58:02.501Z,99090.04
2023-04-04T15:00:33.158Z,99089.16
2023-04-04T15:03:04.184Z,99082.48
2023-04-04T15:05:34.115Z,99076.11
2023-04-04T15:08:01.402Z,99067.26
2023-04-04T15:10:29.338Z,99061.70
2023-04-04T15:13:02.116Z,99055.39
2023-04-04T15:15:29.881Z,99048.02
2023-04-04T15:17:58.561Z,99046.39
2023-04-04T15:20:26.536Z,99039.71
2023-04-04T15:22:54.205Z,99031.36
2023-04-04T15:25:21.652Z,99021.78
2023-04-04T15:27:49.518Z,99015.45
2023-04-04T15:30:18.001Z,99006.25
2023-04-04T15:32:46.517Z,98996.70
2023-04-04T15:35:16.598Z,98992.63
2023-04-04T15:37:44.061Z,98983.73
2023-04-04T15:40:12.652Z,98982.02
2023-04-04T15:42:40.838Z,98971.15
2023-04-04T15:45:09.285Z,98957.45
2023-04-04T15:47:36.850Z,98945.05
2023-04-04T15:50:06.262Z,98926.45
2023-04-04T15:52:34.051Z,98915.38
2023-04-04T15:55:02.808Z,98906.33
2023-04-04T15:57:31.593Z,98907.56
2023-04-04T15:59:58.850Z,98909.58
2023-04-04T16:02:26.368Z,98916.95
2023-04-04T16:04:53.753Z,98916.55
2023-04-04T16:07:21.355Z,98909.42
2023-04-04T16:09:48.788Z,98905.29
2023-04-04T16:12:16.531Z,98907.34
2023-04-04T16:14:44.114Z,98897.70
2023-04-04T16:17:13.396Z,98887.66
2023-04-04T16:19:41.059Z,98883.77
2023-04-04T16:22:09.230Z,98876.32
2023-04-04T16:24:38.830Z,98866.71
2023-04-04T16:27:06.698Z,98860.66
2023-04-04T16:29:34.148Z,98856.52
2023-04-04T16:32:05.208Z,98847.40
2023-04-04T16:34:32.597Z,98840.69
2023-04-04T16:37:03.395Z,98837.70
2023-04-04T16:39:31.271Z,98826.96
2023-04-04T16:42:00.044Z,98818.98
2023-04-04T16:44:27.607Z,98810.63
2023-04-04T16:46:55.796Z,98807.38
2023-04-04T16:49:23.786Z,98799.83
2023-04-04T16:51:52.433Z,98791.48
2023-04-04T16:54:19.989Z,98782.01
2023-04-04T16:56:47.655Z,98774.09
2023-04-04T16:59:16.172Z,98774.20
2023-04-04T17:01:44.726Z,98770.90
2023-04-04T17:04:12.882Z,98766.20
2023-04-04T17:06:41.776Z,98761.48
2023-04-04T17:09:09.341Z,98749.54
2023-04-04T17:11:44.652Z,98749.19
2023-04-04T17:14:12.441Z,98747.66
2023-04-04T17:21:47.171Z,98732.13
2023-04-04T17:24:14.362Z,98721.37
2023-04-04T17:26:42.332Z,98718.09
2023-04-04T17:29:10.017Z,98716.52
2023-04-04T17:31:43.078Z,98708.80
2023-04-04T17:34:12.835Z,98703.98
2023-04-04T17:36:40.933Z,98699.38
2023-04-04T17:39:09.039Z,98689.02
2023-04-04T17:41:40.254Z,98686.61
2023-04-04T17:44:09.059Z,98676.04
2023-04-04T17:46:37.569Z,98667.73
2023-04-04T17:49:06.641Z,98662.21
2023-04-04T17:51:34.110Z,98646.30
2023-04-04T17:54:01.852Z,98645.19
2023-04-04T17:56:29.266Z,98644.01
2023-04-04T17:58:57.309Z,98641.23
2023-04-04T18:01:28.936Z,98637.38
2023-04-04T18:03:57.480Z,98633.73
2023-04-04T18:06:26.239Z,98630.09
2023-04-04T18:08:54.791Z,98632.83
2023-04-04T18:11:25.168Z,98633.77
2023-04-04T18:13:53.283Z,98627.83
2023-04-04T18:16:21.003Z,98627.30
2023-04-04T18:18:51.471Z,98619.70
2023-04-04T18:21:20.279Z,98614.60
2023-04-04T18:23:48.235Z,98607.95
2023-04-04T18:26:15.730Z,98602.22
2023-04-04T18:28:45.694Z,98599.23
2023-04-04T18:31:13.383Z,98596.53
2023-04-04T18:33:40.612Z,98589.16
2023-04-04T18:36:07.873Z,98582.61
2023-04-04T18:38:35.785Z,98577.21
2023-04-04T18:41:05.297Z,98568.11
2023-04-04T18:43:32.794Z,98568.11
2023-04-04T18:46:04.372Z,98566.14
2023-04-04T18:48:33.571Z,98567.08
2023-04-04T18:51:01.308Z,98562.72
2023-04-04T18:53:30.759Z,98556.08
2023-04-04T18:55:58.151Z,98551.73
2023-04-04T18:58:26.849Z,98550.09
2023-04-04T19:00:55.474Z,98548.82
2023-04-04T19:03:25.559Z,98537.64
2023-04-04T19:05:53.862Z,98535.01
2023-04-04T19:08:22.014Z,98527.23
2023-04-04T19:10:50.617Z,98526.29
2023-04-04T19:13:20.297Z,98518.95
2023-04-04T19:15:49.291Z,98513.38
2023-04-04T19:18:17.878Z,98501.09
2023-04-04T19:20:45.641Z,98497.55
2023-04-04T19:23:15.153Z,98492.68
2023-04-04T19:25:42.885Z,98487.16
2023-04-04T19:28:11.031Z,98477.20
2023-04-04T19:30:49.326Z,98480.33
2023-04-04T19:33:19.815Z,98470.09
2023-04-04T19:35:53.008Z,98472.17
2023-04-04T19:38:25.845Z,98472.23
2023-04-04T19:40:58.309Z,98471.97
2023-04-04T19:43:26.330Z,98473.49
2023-04-04T19:45:55.789Z,98470.83
2023-04-04T19:48:38.558Z,98467.30
2023-04-04T19:51:11.845Z,98466.98
2023-04-04T19:53:44.753Z,98461.38
2023-04-04T19:56:13.740Z,98454.48
2023-04-04T19:58:41.185Z,98450.27
2023-04-04T20:01:10.496Z,98441.50
2023-04-04T20:03:38.666Z,98434.55
2023-04-04T20:06:27.815Z,98431.57
2023-04-04T20:08:56.542Z,98416.75
2023-04-04T20:11:29.896Z,98412.88
2023-04-04T20:14:01.253Z,98404.25
2023-04-04T20:16:29.477Z,98400.77
2023-04-04T20:18:58.232Z,98396.67
2023-04-04T20:21:27.826Z,98394.79
2023-04-04T20:24:07.739Z,98397.17
2023-04-04T20:26:35.992Z,98398.70
2023-04-04T20:29:14.855Z,98402.83
2023-04-04T20:31:47.867Z,98402.23
2023-04-04T20:34:38.903Z,98403.73
2023-04-04T20:37:14.228Z,98396.88
2023-04-04T20:40:09.154Z,98388.13
2023-04-04T20:42:38.313Z,98379.72
2023-04-04T20:45:08.613Z,98375.11
2023-04-04T20:47:46.132Z,98374.36
2023-04-04T20:50:16.534Z,98372.42
2023-04-04T20:52:48.089Z,98372.77
2023-04-04T20:55:17.284Z,98368.45
2023-04-04T20:57:48.076Z,98362.02
2023-04-04T21:00:36.277Z,98361.72
2023-04-04T21:03:26.470Z,98350.13
2023-04-04T21:06:14.809Z,98340.60
2023-04-04T21:08:49.348Z,98337.80
2023-04-04T21:11:31.967Z,98332.98
2023-04-04T21:13:59.501Z,98330.02
2023-04-04T21:16:27.152Z,98326.98
2023-04-04T21:18:58.930Z,98327.38
2023-04-04T21:21:26.772Z,98316.38
2023-04-04T21:23:56.386Z,98308.01
2023-04-04T21:26:28.140Z,98297.93
2023-04-04T21:28:56.459Z,98294.83
2023-04-04T21:31:24.859Z,98291.19
2023-04-04T21:33:53.553Z,98288.73
2023-04-04T21:36:23.936Z,98281.91
2023-04-04T21:38:52.284Z,98275.98
2023-04-04T21:41:29.981Z,98275.27
2023-04-04T21:43:58.255Z,98264.87
2023-04-04T21:46:26.250Z,98256.30
2023-04-04T21:48:53.829Z,98253.40
2023-04-04T21:51:21.958Z,98243.38
2023-04-04T21:53:49.827Z,98237.84
2023-04-04T21:56:17.278Z,98242.81
2023-04-04T21:58:46.124Z,98249.98
2023-04-04T22:01:13.796Z,98252.31
2023-04-04T22:03:43.022Z,98249.57
2023-04-04T22:06:10.804Z,98245.54
2023-04-04T22:08:38.039Z,98242.35
2023-04-04T22:11:05.392Z,98245.07
2023-04-04T22:13:33.653Z,98240.79
2023-04-04T22:16:02.027Z,98237.20
2023-04-04T22:18:30.416Z,98239.22
2023-04-04T22:21:02.591Z,98240.73
2023-04-04T22:23:35.108Z,98233.55
2023-04-04T22:26:04.798Z,98223.15
2023-04-04T22:28:37.045Z,98216.35
2023-04-04T22:31:04.921Z,98216.36
2023-04-04T22:33:33.709Z,98212.92
2023-04-04T22:36:01.123Z,98209.57
2023-04-04T22:38:30.970Z,98206.20
2023-04-04T22:40:58.248Z,98206.23
2023-04-04T22:43:26.401Z,98206.25
2023-04-04T22:45:53.877Z,98202.50
2023-04-04T22:48:24.608Z,98196.06
2023-04-04T22:50:55.829Z,98195.24
2023-04-04T22:53:26.310Z,98191.05
2023-04-04T22:55:57.741Z,98194.75
2023-04-04T22:58:25.486Z,98190.40
2023-04-04T23:00:53.078Z,98187.95
2023-04-04T23:03:40.382Z,98188.27
2023-04-04T23:06:08.015Z,98193.94
2023-04-04T23:08:37.110Z,98207.27
2023-04-04T23:11:04.571Z,98212.89
2023-04-04T23:13:34.337Z,98217.27
2023-04-04T23:16:02.788Z,98215.81
2023-04-04T23:18:30.828Z,98211.36
2023-04-04T23:21:01.461Z,98208.73
2023-04-04T23:23:29.121Z,98206.15
2023-04-04T23:25:56.484Z,98199.62
2023-04-04T23:28:28.442Z,98194.23
2023-04-04T23:30:56.238Z,98190.67
2023-04-04T23:33:25.908Z,98185.23
2023-04-04T23:35:53.414Z,98188.70
2023-04-04T23:38:21.133Z,98184.41
2023-04-04T23:40:48.696Z,98187.02
2023-04-04T23:43:16.146Z,98176.28
2023-04-04T23:45:43.297Z,98178.54
2023-04-04T23:48:10.855Z,98177.46
2023-04-04T23:50:38.469Z,98175.42
2023-04-04T23:53:06.177Z,98174.56
2023-04-04T23:55:33.736Z,98172.25
2023-04-04T23:58:02.804Z,98170.08
